createdAt,value
2018-05-02T00:02:02.485Z,54.14
2018-05-02T00:04:30.850Z,54.04
2018-05-02T00:06:59.785Z,54.08
2018-05-02T00:09:28.203Z,53.95
2018-05-02T00:11:56.779Z,54.02
2018-05-02T00:14:25.159Z,54.14
2018-05-02T00:16:53.637Z,54.34
2018-05-02T00:19:22.028Z,54.47
2018-05-02T00:21:50.382Z,54.75
2018-05-02T00:24:18.742Z,55.05
2018-05-02T00:26:47.157Z,55.30
2018-05-02T00:29:15.509Z,55.61
2018-05-02T00:31:44.239Z,55.85
2018-05-02T00:34:12.588Z,55.93
2018-05-02T00:36:40.938Z,56.22
2018-05-02T00:39:09.336Z,56.33
2018-05-02T00:41:37.869Z,56.47
2018-05-02T00:44:06.243Z,56.69
2018-05-02T00:46:34.595Z,56.75
2018-05-02T00:49:14.001Z,56.81
2018-05-02T00:51:42.712Z,56.95
2018-05-02T00:54:11.136Z,57.04
2018-05-02T00:56:39.502Z,57.16
2018-05-02T00:59:07.898Z,57.32
2018-05-02T01:01:36.499Z,57.47
2018-05-02T01:04:05.024Z,57.59
2018-05-02T01:06:33.376Z,57.76
2018-05-02T01:09:01.743Z,57.85
2018-05-02T01:11:30.114Z,57.86
2018-05-02T01:13:58.588Z,58.02
2018-05-02T01:16:26.979Z,58.11
2018-05-02T01:18:55.937Z,58.11
2018-05-02T01:21:25.191Z,58.25
2018-05-02T01:23:53.549Z,58.31
2018-05-02T01:26:21.891Z,58.43
2018-05-02T01:28:50.255Z,58.50
2018-05-02T01:31:18.624Z,58.57
2018-05-02T01:33:47.270Z,58.52
2018-05-02T01:36:15.631Z,58.65
2018-05-02T01:38:44.124Z,58.66
2018-05-02T01:41:12.476Z,58.81
2018-05-02T01:43:40.815Z,58.85
2018-05-02T01:46:09.169Z,58.73
2018-05-02T01:48:37.528Z,59.05
2018-05-02T01:51:05.949Z,59.20
2018-05-02T01:53:34.317Z,58.99
2018-05-02T01:56:02.662Z,58.90
2018-05-02T01:58:31.007Z,58.98
2018-05-02T02:00:59.468Z,59.12
2018-05-02T02:03:27.850Z,59.28
2018-05-02T02:05:56.348Z,59.08
2018-05-02T02:08:25.353Z,58.99
2018-05-02T02:10:53.797Z,58.87
2018-05-02T02:13:22.219Z,59.00
2018-05-02T02:15:50.593Z,59.05
2018-05-02T02:18:19.038Z,59.09
2018-05-02T02:20:47.383Z,59.32
2018-05-02T02:23:15.751Z,59.49
2018-05-02T02:25:45.342Z,59.74
2018-05-02T02:28:14.097Z,59.49
2018-05-02T02:30:43.415Z,59.58
2018-05-02T02:33:12.564Z,59.49
2018-05-02T02:35:40.971Z,59.34
2018-05-02T02:38:09.311Z,59.33
2018-05-02T02:40:38.332Z,59.27
2018-05-02T02:43:07.321Z,59.32
2018-05-02T02:45:37.052Z,59.58
2018-05-02T02:48:06.257Z,59.41
2018-05-02T02:50:35.154Z,59.43
2018-05-02T02:53:04.326Z,59.41
2018-05-02T02:55:32.725Z,59.55
2018-05-02T02:58:02.287Z,59.43
2018-05-02T03:00:30.894Z,59.54
2018-05-02T03:02:59.532Z,59.55
2018-05-02T03:05:28.889Z,59.61
2018-05-02T03:07:57.989Z,59.54
2018-05-02T03:10:26.391Z,59.53
2018-05-02T03:12:55.547Z,59.71
2018-05-02T03:15:24.593Z,59.84
2018-05-02T03:17:53.500Z,59.95
2018-05-02T03:20:22.308Z,60.04
2018-05-02T03:22:51.294Z,60.21
2018-05-02T03:25:19.894Z,60.24
2018-05-02T03:27:48.749Z,60.38
2018-05-02T03:30:17.105Z,60.48
2018-05-02T03:32:46.389Z,60.63
2018-05-02T03:35:15.566Z,60.65
2018-05-02T03:37:44.449Z,60.80
2018-05-02T03:40:13.105Z,60.84
2018-05-02T03:42:42.509Z,60.92
2018-05-02T03:45:12.584Z,60.96
2018-05-02T03:47:41.418Z,60.96
2018-05-02T03:50:09.783Z,60.94
2018-05-02T03:52:38.432Z,61.07
2018-05-02T03:55:06.894Z,61.02
2018-05-02T03:57:35.916Z,61.00
2018-05-02T04:00:18.074Z,60.90
2018-05-02T04:02:58.458Z,60.85
2018-05-02T04:05:38.892Z,60.84
2018-05-02T04:08:07.227Z,60.94
2018-05-02T04:10:35.660Z,61.08
2018-05-02T04:13:04.775Z,60.84
2018-05-02T04:15:33.205Z,60.36
2018-05-02T04:18:01.549Z,59.66
2018-05-02T04:20:29.991Z,59.37
2018-05-02T04:22:58.409Z,59.07
2018-05-02T04:25:27.275Z,58.95
2018-05-02T04:27:55.868Z,58.82
2018-05-02T04:30:24.350Z,58.80
2018-05-02T04:32:52.714Z,58.77
2018-05-02T04:35:21.188Z,58.80
2018-05-02T04:37:49.946Z,58.48
2018-05-02T04:40:18.964Z,58.27
2018-05-02T04:42:47.305Z,58.15
2018-05-02T04:45:15.652Z,58.05
2018-05-02T04:47:44.284Z,58.03
2018-05-02T04:50:12.717Z,57.92
2018-05-02T04:52:41.471Z,57.84
2018-05-02T04:55:10.180Z,57.83
2018-05-02T04:57:38.863Z,57.73
2018-05-02T05:00:07.372Z,57.65
2018-05-02T05:02:35.742Z,57.54
2018-05-02T05:05:04.325Z,57.47
2018-05-02T05:07:32.677Z,57.32
2018-05-02T05:10:01.033Z,57.20
2018-05-02T05:12:29.892Z,57.10
2018-05-02T05:14:58.244Z,56.98
2018-05-02T05:17:26.850Z,56.97
2018-05-02T05:19:55.732Z,56.60
2018-05-02T05:22:24.359Z,56.50
2018-05-02T05:24:52.719Z,56.54
2018-05-02T05:27:21.343Z,56.52
2018-05-02T05:29:49.786Z,56.44
2018-05-02T05:32:19.000Z,56.40
2018-05-02T05:34:47.677Z,56.36
2018-05-02T05:37:16.049Z,56.18
2018-05-02T05:39:44.630Z,55.90
2018-05-02T05:42:13.335Z,55.78
2018-05-02T05:44:41.743Z,55.77
2018-05-02T05:47:10.110Z,55.68
2018-05-02T05:49:38.660Z,55.72
2018-05-02T05:52:07.597Z,55.53
2018-05-02T05:54:35.972Z,55.29
2018-05-02T05:57:05.243Z,55.31
2018-05-02T05:59:33.932Z,55.22
2018-05-02T06:02:02.609Z,55.05
2018-05-02T06:04:32.054Z,54.92
2018-05-02T06:07:01.567Z,54.82
2018-05-02T06:09:30.378Z,54.81
2018-05-02T06:11:59.613Z,54.57
2018-05-02T06:14:27.978Z,54.51
2018-05-02T06:16:56.432Z,54.50
2018-05-02T06:19:25.177Z,54.42
2018-05-02T06:21:53.891Z,53.94
2018-05-02T06:24:22.255Z,53.91
2018-05-02T06:26:50.623Z,53.44
2018-05-02T06:29:19.374Z,53.28
2018-05-02T06:31:48.125Z,53.09
2018-05-02T06:34:16.528Z,52.09
2018-05-02T06:36:44.892Z,50.00
2018-05-02T06:39:13.588Z,48.60
2018-05-02T06:41:42.159Z,49.37
2018-05-02T06:44:10.933Z,48.74
2018-05-02T06:46:39.717Z,49.23
2018-05-02T06:49:08.629Z,48.78
2018-05-02T06:51:37.000Z,47.85
2018-05-02T06:54:05.361Z,47.79
2018-05-02T06:56:33.720Z,47.76
2018-05-02T06:59:02.312Z,47.71
2018-05-02T07:01:30.776Z,47.75
2018-05-02T07:03:59.226Z,47.75
2018-05-02T07:06:28.355Z,47.55
2018-05-02T07:08:57.095Z,47.38
2018-05-02T07:11:25.613Z,47.72
2018-05-02T07:13:54.230Z,47.20
2018-05-02T07:16:23.588Z,47.02
2018-05-02T07:18:52.124Z,46.85
2018-05-02T07:21:21.424Z,46.18
2018-05-02T07:23:49.879Z,45.93
2018-05-02T07:26:18.677Z,45.81
2018-05-02T07:28:48.084Z,45.50
2018-05-02T07:31:17.193Z,45.04
2018-05-02T07:33:46.350Z,44.38
2018-05-02T07:36:15.107Z,43.43
2018-05-02T07:38:44.326Z,42.96
2018-05-02T07:41:12.921Z,42.86
2018-05-02T07:43:41.981Z,43.09
2018-05-02T07:46:10.449Z,42.59
2018-05-02T07:48:38.902Z,42.89
2018-05-02T07:51:08.151Z,43.09
2018-05-02T07:53:36.934Z,42.05
2018-05-02T07:56:05.323Z,42.05
2018-05-02T07:58:33.914Z,42.22
2018-05-02T08:01:02.586Z,42.07
2018-05-02T08:03:31.213Z,41.70
2018-05-02T08:06:00.455Z,40.77
2018-05-02T08:08:28.816Z,39.61
2018-05-02T08:10:58.068Z,39.00
2018-05-02T08:13:26.436Z,39.52
2018-05-02T08:15:55.208Z,39.37
2018-05-02T08:18:23.612Z,39.17
2018-05-02T08:20:52.037Z,38.92
2018-05-02T08:23:21.096Z,38.61
2018-05-02T08:25:49.467Z,38.87
2018-05-02T08:28:18.106Z,39.32
2018-05-02T08:30:47.143Z,39.63
2018-05-02T08:33:15.680Z,39.12
2018-05-02T08:35:44.038Z,38.85
2018-05-02T08:38:12.391Z,38.87
2018-05-02T08:40:41.287Z,38.94
2018-05-02T08:43:10.040Z,39.17
2018-05-02T08:45:38.623Z,39.32
2018-05-02T08:48:06.988Z,39.03
2018-05-02T08:50:35.353Z,39.16
2018-05-02T08:53:04.840Z,39.13
2018-05-02T08:55:33.339Z,39.26
2018-05-02T08:58:02.611Z,39.43
2018-05-02T09:00:32.251Z,39.62
2018-05-02T09:03:01.478Z,39.97
2018-05-02T09:05:29.925Z,39.97
2018-05-02T09:07:59.429Z,39.76
2018-05-02T09:10:29.381Z,39.76
2018-05-02T09:12:58.005Z,39.56
2018-05-02T09:15:26.480Z,40.02
2018-05-02T09:17:54.851Z,40.03
2018-05-02T09:20:23.384Z,40.05
2018-05-02T09:22:51.995Z,39.83
2018-05-02T09:25:21.184Z,39.61
2018-05-02T09:27:49.541Z,39.69
2018-05-02T09:30:18.286Z,39.66
2018-05-02T09:32:46.637Z,39.95
2018-05-02T09:35:15.073Z,39.77
2018-05-02T09:37:43.440Z,39.44
2018-05-02T09:40:11.808Z,39.26
2018-05-02T09:42:40.481Z,39.33
2018-05-02T09:45:08.978Z,38.89
2018-05-02T09:47:37.631Z,38.63
2018-05-02T09:50:06.101Z,38.79
2018-05-02T09:52:34.541Z,38.43
2018-05-02T09:55:03.464Z,38.32
2018-05-02T09:57:32.071Z,38.32
2018-05-02T10:00:00.774Z,37.27
2018-05-02T10:02:29.239Z,37.15
2018-05-02T10:04:58.558Z,37.09
2018-05-02T10:07:27.686Z,36.85
2018-05-02T10:09:56.648Z,36.49
2018-05-02T10:12:26.318Z,36.52
2018-05-02T10:14:54.662Z,37.87
2018-05-02T10:17:23.902Z,38.27
2018-05-02T10:19:52.964Z,38.71
2018-05-02T10:22:21.328Z,38.96
2018-05-02T10:24:49.728Z,39.42
2018-05-02T10:27:18.485Z,39.45
2018-05-02T10:29:46.997Z,39.47
2018-05-02T10:32:16.368Z,40.40
2018-05-02T10:34:44.750Z,40.88
2018-05-02T10:37:13.168Z,40.96
2018-05-02T10:39:41.560Z,41.15
2018-05-02T10:42:09.997Z,41.23
2018-05-02T10:44:38.417Z,41.41
2018-05-02T10:47:06.784Z,41.64
2018-05-02T10:49:35.140Z,42.08
2018-05-02T10:52:03.509Z,42.57
2018-05-02T10:54:31.870Z,43.33
2018-05-02T11:01:02.149Z,43.80
2018-05-02T11:03:30.606Z,43.92
2018-05-02T11:05:59.519Z,44.03
2018-05-02T11:08:28.571Z,43.60
2018-05-02T11:10:56.893Z,43.46
2018-05-02T11:13:25.310Z,43.46
2018-05-02T11:15:54.545Z,43.67
2018-05-02T11:18:23.657Z,44.28
2018-05-02T11:20:52.830Z,44.08
2018-05-02T11:23:21.427Z,43.71
2018-05-02T11:25:49.857Z,43.76
2018-05-02T11:28:18.233Z,43.50
2018-05-02T11:30:46.677Z,43.72
2018-05-02T11:33:15.072Z,43.47
2018-05-02T11:35:43.591Z,43.53
2018-05-02T11:38:13.031Z,43.55
2018-05-02T12:06:07.603Z,41.60
2018-05-02T12:08:37.053Z,41.82
2018-05-02T12:11:06.135Z,41.41
2018-05-02T12:13:34.562Z,41.30
2018-05-02T12:16:02.988Z,41.19
2018-05-02T12:18:31.365Z,41.28
2018-05-02T12:20:59.777Z,41.01
2018-05-02T12:23:28.120Z,40.78
2018-05-02T12:29:28.267Z,40.26
2018-05-02T12:31:56.627Z,40.37
2018-05-02T12:34:25.077Z,40.21
2018-05-02T12:36:53.523Z,40.14
2018-05-02T12:39:21.884Z,40.36
2018-05-02T12:41:50.338Z,40.51
2018-05-02T12:44:18.757Z,40.31
2018-05-02T12:46:47.297Z,40.27
2018-05-02T12:49:16.157Z,40.24
2018-05-02T12:51:44.605Z,40.21
2018-05-02T12:54:13.248Z,39.97
2018-05-02T12:56:41.809Z,40.22
2018-05-02T12:59:10.183Z,40.43
2018-05-02T13:01:39.440Z,40.83
2018-05-02T13:04:07.804Z,41.61
2018-05-02T13:06:36.175Z,41.90
2018-05-02T13:09:04.612Z,41.94
2018-05-02T13:11:33.197Z,42.21
2018-05-02T13:14:01.555Z,42.63
2018-05-02T13:16:30.088Z,43.17
2018-05-02T13:18:59.476Z,43.75
2018-05-02T13:21:27.905Z,43.87
2018-05-02T13:23:56.273Z,43.95
2018-05-02T13:26:25.293Z,44.25
2018-05-02T13:28:53.720Z,44.68
2018-05-02T13:31:22.323Z,44.96
2018-05-02T13:33:50.761Z,45.43
2018-05-02T13:36:19.131Z,45.80
2018-05-02T13:38:47.655Z,46.18
2018-05-02T13:41:16.094Z,46.57
2018-05-02T13:43:44.468Z,46.76
2018-05-02T13:46:12.824Z,46.94
2018-05-02T13:48:41.241Z,47.26
2018-05-02T13:51:10.533Z,47.76
2018-05-02T13:53:39.187Z,47.99
2018-05-02T13:56:08.563Z,48.13
2018-05-02T13:58:38.125Z,48.32
2018-05-02T14:01:06.507Z,48.72
2018-05-02T14:03:35.196Z,49.09
2018-05-02T14:06:03.616Z,48.97
2018-05-02T14:08:31.999Z,49.18
2018-05-02T14:11:02.132Z,49.31
2018-05-02T14:13:30.872Z,49.59
2018-05-02T14:15:59.471Z,49.62
2018-05-02T14:18:28.009Z,49.88
2018-05-02T14:20:56.368Z,50.20
2018-05-02T14:23:25.445Z,50.38
2018-05-02T14:25:55.198Z,50.80
2018-05-02T14:28:23.550Z,50.89
2018-05-02T14:30:51.929Z,51.04
2018-05-02T14:33:20.374Z,51.24
2018-05-02T14:35:48.870Z,51.41
2018-05-02T14:38:17.287Z,51.71
2018-05-02T14:40:46.540Z,52.08
2018-05-02T14:43:16.105Z,52.29
2018-05-02T14:45:44.551Z,52.18
2018-05-02T14:48:13.285Z,52.23
2018-05-02T14:50:42.410Z,52.21
2018-05-02T14:53:11.497Z,52.47
2018-05-02T14:55:40.912Z,52.55
2018-05-02T14:58:09.432Z,52.88
2018-05-02T15:00:37.862Z,52.92
2018-05-02T15:03:06.232Z,53.16
2018-05-02T15:05:35.024Z,53.29
2018-05-02T15:08:03.468Z,53.37
2018-05-02T15:10:32.838Z,53.51
2018-05-02T15:13:01.194Z,53.60
2018-05-02T15:15:30.756Z,53.85
2018-05-02T15:17:59.328Z,53.83
2018-05-02T15:20:27.727Z,54.08
2018-05-02T15:22:56.093Z,54.24
2018-05-02T15:25:24.879Z,54.32
2018-05-02T15:27:53.237Z,54.32
2018-05-02T15:30:21.601Z,54.42
2018-05-02T15:32:49.996Z,54.46
2018-05-02T15:35:18.547Z,54.63
2018-05-02T15:37:47.835Z,54.74
2018-05-02T15:40:17.328Z,55.02
2018-05-02T15:42:45.866Z,55.17
2018-05-02T15:45:14.842Z,55.42
2018-05-02T15:47:43.571Z,55.57
2018-05-02T15:50:12.294Z,55.65
2018-05-02T15:52:41.221Z,55.80
2018-05-02T15:55:10.161Z,55.52
2018-05-02T15:57:38.806Z,55.64
2018-05-02T16:00:07.208Z,55.88
2018-05-02T16:02:35.919Z,55.80
2018-05-02T16:17:37.073Z,55.63
2018-05-02T16:20:07.270Z,55.82
2018-05-02T16:22:36.160Z,56.11
2018-05-02T16:25:04.972Z,56.44
2018-05-02T16:27:34.590Z,56.65
2018-05-02T16:30:03.346Z,56.85
2018-05-02T16:32:32.391Z,57.03
2018-05-02T16:35:01.092Z,57.23
2018-05-02T16:37:29.564Z,57.31
2018-05-02T16:39:58.616Z,57.47
2018-05-02T16:42:27.008Z,57.24
2018-05-02T16:44:55.480Z,57.44
2018-05-02T16:47:25.016Z,57.51
2018-05-02T16:49:53.403Z,57.54
2018-05-02T16:52:22.145Z,57.75
2018-05-02T16:54:50.571Z,58.01
2018-05-02T16:57:19.365Z,58.32
2018-05-02T16:59:48.808Z,58.31
2018-05-02T17:02:18.148Z,58.34
2018-05-02T17:04:46.927Z,58.57
2018-05-02T17:07:15.322Z,58.73
2018-05-02T17:09:44.646Z,58.92
2018-05-02T17:12:13.017Z,59.03
2018-05-02T17:14:41.385Z,59.18
2018-05-02T17:17:09.744Z,59.09
2018-05-02T17:19:39.295Z,59.10
2018-05-02T17:22:08.345Z,59.18
2018-05-02T17:24:36.997Z,59.36
2018-05-02T17:27:05.359Z,59.48
2018-05-02T17:29:33.847Z,59.58
2018-05-02T17:32:02.511Z,59.63
2018-05-02T17:34:30.904Z,59.82
2018-05-02T17:36:59.423Z,59.79
2018-05-02T17:39:28.414Z,59.78
2018-05-02T17:41:57.052Z,59.97
2018-05-02T17:44:25.470Z,60.20
2018-05-02T17:46:54.247Z,60.47
2018-05-02T17:49:22.628Z,60.66
2018-05-02T17:51:51.340Z,61.11
2018-05-02T17:54:20.105Z,61.42
2018-05-02T17:56:48.620Z,61.54
2018-05-02T17:59:16.978Z,61.68
2018-05-02T18:01:45.353Z,61.85
2018-05-02T18:04:13.784Z,61.93
2018-05-02T18:06:42.312Z,62.23
2018-05-02T18:09:10.849Z,62.15
2018-05-02T18:11:39.440Z,62.28
2018-05-02T18:14:07.857Z,62.46
2018-05-02T18:16:36.402Z,62.96
2018-05-02T18:19:04.871Z,63.05
2018-05-02T18:21:34.025Z,63.48
2018-05-02T18:24:02.558Z,63.51
2018-05-02T18:26:30.978Z,63.69
2018-05-02T18:28:59.573Z,63.90
2018-05-02T18:31:28.055Z,63.91
2018-05-02T18:33:56.434Z,64.10
2018-05-02T18:36:25.702Z,64.35
2018-05-02T18:38:54.182Z,64.17
2018-05-02T18:41:22.551Z,64.38
2018-05-02T18:43:51.692Z,64.40
2018-05-02T18:46:20.061Z,64.48
2018-05-02T18:48:48.448Z,64.55
2018-05-02T18:51:17.256Z,64.88
2018-05-02T18:53:45.700Z,65.17
2018-05-02T18:56:14.081Z,64.90
2018-05-02T18:58:43.062Z,64.93
2018-05-02T19:01:11.426Z,64.73
2018-05-02T19:03:39.895Z,65.03
2018-05-02T19:06:08.276Z,64.77
2018-05-02T19:08:36.704Z,64.64
2018-05-02T19:11:05.326Z,64.86
2018-05-02T19:13:39.373Z,64.79
2018-05-02T19:16:07.767Z,64.93
2018-05-02T19:18:41.657Z,65.05
2018-05-02T19:21:10.168Z,65.25
2018-05-02T19:23:38.701Z,65.37
2018-05-02T19:26:12.765Z,65.51
2018-05-02T19:28:41.809Z,65.53
2018-05-02T19:31:16.660Z,65.67
2018-05-02T19:33:50.701Z,65.74
2018-05-02T19:36:19.170Z,65.53
2018-05-02T19:38:47.608Z,65.55
2018-05-02T19:41:22.657Z,65.42
2018-05-02T19:43:56.752Z,65.50
2018-05-02T19:46:25.273Z,65.55
2018-05-02T19:48:54.016Z,65.55
2018-05-02T19:51:28.047Z,65.53
2018-05-02T19:53:56.483Z,65.73
2018-05-02T19:56:25.646Z,65.56
2018-05-02T19:58:54.299Z,67.91
2018-05-02T20:35:03.514Z,50.78
2018-05-02T20:37:31.966Z,45.98
